Time;durP1;ratioP1;P1;durP2;ratioP2;P2;SDS_P1;SDS_P2;PMS_P1;PMS_P2;Temp;Humidity;BMP_temperature;BMP_pressure;BME280_temperature;BME280_humidity;BME280_pressure;Samples;Min_cycle;Max_cycle;Signal;HPM_P1;HPM_P2
2022/05/14 00:00:42;;;;;;;1.30;1.20;;;17.80;70.30;;;;;;5029932;28;20463;-68
2022/05/14 00:03:08;;;;;;;2.77;1.53;;;17.70;70.40;;;;;;5012440;28;20259;-68
2022/05/14 00:05:34;;;;;;;1.63;1.40;;;17.70;70.40;;;;;;5004701;28;20464;-68
2022/05/14 00:08:00;;;;;;;3.30;1.33;;;17.70;70.40;;;;;;5037871;28;20462;-69
2022/05/14 00:10:28;;;;;;;1.30;1.20;;;17.60;70.40;;;;;;5018817;28;20971;-70
2022/05/14 00:13:03;;;;;;;1.53;1.40;;;17.60;70.50;;;;;;5011974;28;20201;-67
2022/05/14 00:15:37;;;;;;;1.80;1.30;;;17.50;70.50;;;;;;5030039;28;20476;-68
2022/05/14 00:18:05;;;;;;;3.97;1.40;;;17.50;70.80;;;;;;5026995;28;20536;-67
2022/05/14 00:20:31;;;;;;;1.40;1.30;;;17.40;70.70;;;;;;5002974;28;20458;-68
2022/05/14 00:22:58;;;;;;;3.00;1.50;;;17.30;70.80;;;;;;5040251;28;20460;-68
2022/05/14 00:25:25;;;;;;;2.70;1.50;;;17.20;71.30;;;;;;5032386;28;20597;-68
2022/05/14 00:27:51;;;;;;;1.57;1.37;;;17.10;71.70;;;;;;5026333;28;20448;-70
2022/05/14 00:30:19;;;;;;;1.63;1.50;;;17.00;72.10;;;;;;5029045;28;20448;-68
2022/05/14 00:32:47;;;;;;;2.60;1.70;;;16.90;72.20;;;;;;5028547;28;20451;-68
2022/05/14 00:35:13;;;;;;;2.00;1.43;;;16.80;72.70;;;;;;5020112;28;20877;-68
2022/05/14 00:37:38;;;;;;;2.40;1.50;;;16.70;72.90;;;;;;5035845;28;20447;-68
2022/05/14 00:40:09;;;;;;;1.90;1.80;;;16.60;72.90;;;;;;5028901;28;20435;-67
2022/05/14 00:42:35;;;;;;;2.23;1.20;;;16.50;73.20;;;;;;5012633;28;20215;-68
2022/05/14 00:45:01;;;;;;;3.20;1.40;;;16.40;73.90;;;;;;5027670;28;20440;-68
2022/05/14 00:47:34;;;;;;;1.50;1.40;;;16.30;74.30;;;;;;5027909;28;20220;-70
2022/05/14 00:50:00;;;;;;;1.30;1.20;;;16.30;74.20;;;;;;5035987;28;20246;-66
2022/05/14 00:52:26;;;;;;;1.50;1.40;;;16.40;74.40;;;;;;5032046;28;20454;-68
2022/05/14 00:55:00;;;;;;;2.20;1.37;;;16.30;74.40;;;;;;5030927;28;20212;-68
2022/05/14 00:57:30;;;;;;;2.20;1.63;;;16.20;74.50;;;;;;5015175;28;20451;-67
2022/05/14 00:59:58;;;;;;;1.30;1.20;;;16.20;75.00;;;;;;5008172;28;20563;-68
2022/05/14 01:02:23;;;;;;;5.30;1.50;;;16.10;75.20;;;;;;5011152;28;20478;-70
2022/05/14 01:04:49;;;;;;;2.23;1.40;;;16.10;76.30;;;;;;5010680;28;20452;-66
2022/05/14 01:07:18;;;;;;;2.47;1.40;;;16.10;75.40;;;;;;5025673;28;20248;-67
2022/05/14 01:09:50;;;;;;;1.37;1.27;;;16.10;75.70;;;;;;5027407;28;20208;-68
2022/05/14 01:12:19;;;;;;;2.50;1.63;;;16.10;75.70;;;;;;5009110;28;20478;-70
2022/05/14 01:14:45;;;;;;;2.07;1.30;;;16.20;75.70;;;;;;5027648;28;20464;-67
2022/05/14 01:17:11;;;;;;;1.63;1.30;;;16.10;75.80;;;;;;5033693;28;20836;-72
2022/05/14 01:19:39;;;;;;;3.03;1.40;;;16.20;75.90;;;;;;5021936;28;20213;-68
2022/05/14 01:22:16;;;;;;;1.83;1.60;;;16.00;76.00;;;;;;5031550;28;20447;-66
2022/05/14 01:27:59;;;;;;;2.50;1.87;;;15.90;76.80;;;;;;5031135;28;20447;-66
2022/05/14 01:30:28;;;;;;;1.60;1.50;;;15.80;77.00;;;;;;5015534;28;20451;-67
2022/05/14 01:33:07;;;;;;;2.10;1.90;;;15.70;77.20;;;;;;5039853;28;20526;-70
2022/05/14 01:35:40;;;;;;;4.80;1.50;;;15.70;77.30;;;;;;5006014;28;20538;-67
2022/05/14 01:38:06;;;;;;;2.57;2.07;;;15.70;77.00;;;;;;5015139;28;20451;-67
2022/05/14 01:40:32;;;;;;;3.17;1.40;;;15.60;77.40;;;;;;5015549;28;20467;-67
2022/05/14 01:42:59;;;;;;;11.13;3.20;;;15.50;77.70;;;;;;5011171;28;20477;-65
2022/05/14 01:45:25;;;;;;;2.60;1.90;;;15.50;78.00;;;;;;5025489;28;20470;-67
2022/05/14 01:47:52;;;;;;;4.83;1.80;;;15.40;78.30;;;;;;5029282;28;20940;-67
2022/05/14 01:50:19;;;;;;;1.93;1.73;;;15.30;78.70;;;;;;5029519;28;20455;-67
2022/05/14 01:52:45;;;;;;;7.33;1.90;;;15.20;79.30;;;;;;5030102;28;20443;-69
2022/05/14 01:55:10;;;;;;;1.60;1.50;;;15.20;79.30;;;;;;5024997;28;20451;-70
2022/05/14 01:57:36;;;;;;;3.03;2.07;;;15.10;79.80;;;;;;5030272;28;20790;-67
2022/05/14 02:00:05;;;;;;;1.67;1.57;;;15.00;80.00;;;;;;5030757;28;20604;-67
2022/05/14 02:02:40;;;;;;;4.23;1.70;;;14.90;80.80;;;;;;5016917;28;20208;-68
2022/05/14 02:05:09;;;;;;;3.10;2.10;;;14.90;80.60;;;;;;5026594;28;20842;-68
2022/05/14 02:07:35;;;;;;;1.83;1.50;;;14.90;80.80;;;;;;5030351;28;20448;-68
2022/05/14 02:10:02;;;;;;;1.87;1.60;;;14.90;81.10;;;;;;5014298;28;20796;-67
2022/05/14 02:12:28;;;;;;;3.13;2.83;;;14.80;81.20;;;;;;5031125;28;20440;-68
2022/05/14 02:14:54;;;;;;;1.60;1.50;;;14.80;81.50;;;;;;5036405;28;20443;-69
2022/05/14 02:17:20;;;;;;;2.10;1.53;;;14.70;81.60;;;;;;5032862;28;20296;-67
2022/05/14 02:19:45;;;;;;;3.80;1.70;;;14.70;81.30;;;;;;5014466;28;20212;-68
2022/05/14 02:22:11;;;;;;;2.30;1.60;;;14.80;81.10;;;;;;5031360;28;20212;-67
2022/05/14 02:24:37;;;;;;;1.73;1.63;;;14.90;80.90;;;;;;5030665;28;20569;-68
2022/05/14 02:27:04;;;;;;;2.73;1.63;;;15.00;80.70;;;;;;5027292;28;20294;-66
2022/05/14 02:29:50;;;;;;;4.90;2.03;;;15.10;80.80;;;;;;5035431;28;20487;-68
2022/05/14 02:32:17;;;;;;;2.10;1.90;;;15.00;80.90;;;;;;5030025;28;20451;-68
2022/05/14 02:34:43;;;;;;;2.07;1.87;;;14.90;81.00;;;;;;5030300;28;20498;-68
2022/05/14 02:37:09;;;;;;;4.60;2.20;;;14.80;81.00;;;;;;5031150;28;20975;-68
2022/05/14 02:39:34;;;;;;;3.13;2.00;;;14.70;81.50;;;;;;5030784;28;20223;-67
2022/05/14 02:42:00;;;;;;;4.30;1.80;;;14.60;81.80;;;;;;5030451;28;20243;-68
2022/05/14 02:44:26;;;;;;;2.17;1.57;;;14.50;82.10;;;;;;5030062;28;20550;-67
2022/05/14 02:46:51;;;;;;;6.53;2.03;;;14.50;82.10;;;;;;5030316;28;20298;-68
2022/05/14 02:49:18;;;;;;;1.70;1.60;;;14.50;82.50;;;;;;5030014;28;20221;-70
2022/05/14 02:51:43;;;;;;;2.50;2.30;;;14.50;82.30;;;;;;5014218;28;20457;-68
2022/05/14 02:54:09;;;;;;;1.63;1.53;;;14.60;82.90;;;;;;5030634;28;20243;-67
2022/05/14 02:56:36;;;;;;;1.60;1.50;;;14.70;82.20;;;;;;5035901;28;20250;-68
2022/05/14 02:59:08;;;;;;;1.63;1.53;;;14.80;81.60;;;;;;5032714;28;20440;-67
2022/05/14 03:01:47;;;;;;;2.13;1.87;;;14.90;81.30;;;;;;5011048;28;20205;-67
2022/05/14 03:04:16;;;;;;;1.50;1.40;;;14.90;81.10;;;;;;5025847;28;20446;-69
2022/05/14 03:06:41;;;;;;;2.77;1.73;;;15.00;81.00;;;;;;5021931;28;20598;-68
2022/05/14 03:09:07;;;;;;;2.67;2.10;;;15.00;80.90;;;;;;5019318;28;20447;-67
2022/05/14 03:11:33;;;;;;;2.30;2.10;;;15.00;80.70;;;;;;5045592;28;20231;-67
2022/05/14 03:13:59;;;;;;;2.07;1.87;;;15.00;80.50;;;;;;5043709;28;20223;-66
2022/05/14 03:16:25;;;;;;;1.67;1.57;;;15.10;80.40;;;;;;5014042;28;20286;-70
2022/05/14 03:18:51;;;;;;;1.90;1.80;;;15.10;80.30;;;;;;5030038;28;20209;-67
2022/05/14 03:21:16;;;;;;;3.00;2.53;;;15.00;80.40;;;;;;5013812;28;20224;-68
2022/05/14 03:23:42;;;;;;;1.57;1.40;;;15.00;80.30;;;;;;5025324;28;20208;-68
2022/05/14 03:26:08;;;;;;;2.37;2.17;;;15.00;80.00;;;;;;5043338;28;20692;-66
2022/05/14 03:28:33;;;;;;;2.87;2.00;;;15.10;80.00;;;;;;5012811;28;20276;-68
2022/05/14 03:30:59;;;;;;;1.90;1.80;;;15.10;79.90;;;;;;5030576;28;20216;-68
2022/05/14 03:33:25;;;;;;;6.97;1.90;;;15.10;79.80;;;;;;5031308;28;20212;-67
2022/05/14 03:35:51;;;;;;;2.77;1.67;;;15.10;79.90;;;;;;5012565;28;20943;-69
2022/05/14 03:38:17;;;;;;;3.53;1.87;;;15.00;79.90;;;;;;5038813;28;20219;-68
2022/05/14 03:40:42;;;;;;;8.73;1.73;;;15.00;79.80;;;;;;5041778;28;20311;-68
2022/05/14 03:43:08;;;;;;;2.00;1.80;;;14.90;80.10;;;;;;5021459;28;20213;-67
2022/05/14 03:45:34;;;;;;;3.07;1.80;;;14.80;80.60;;;;;;5009439;28;20222;-67
2022/05/14 03:48:00;;;;;;;2.20;2.00;;;14.80;80.40;;;;;;5011823;28;20228;-67
2022/05/14 03:50:25;;;;;;;2.63;2.10;;;14.90;80.30;;;;;;5013267;28;20240;-68
2022/05/14 03:52:51;;;;;;;1.80;1.70;;;14.90;80.10;;;;;;5036777;28;20204;-68
2022/05/14 03:55:17;;;;;;;3.83;2.20;;;14.90;80.20;;;;;;5018870;28;20244;-68
2022/05/14 03:57:43;;;;;;;2.40;1.83;;;14.90;80.40;;;;;;5028078;28;20259;-69
2022/05/14 04:00:11;;;;;;;2.50;1.70;;;14.90;80.20;;;;;;5024982;28;20963;-67
2022/05/14 04:02:41;;;;;;;1.63;1.53;;;14.90;80.00;;;;;;5024550;28;20619;-68
2022/05/14 04:05:08;;;;;;;3.50;2.00;;;14.90;80.00;;;;;;5026001;28;20580;-67
2022/05/14 04:07:34;;;;;;;3.07;2.27;;;14.90;79.90;;;;;;5011744;28;20451;-68
2022/05/14 04:09:59;;;;;;;3.63;2.00;;;14.90;79.50;;;;;;5028836;28;20455;-67
2022/05/14 04:12:27;;;;;;;2.77;2.30;;;14.90;79.60;;;;;;5029460;28;20220;-68
2022/05/14 04:14:53;;;;;;;2.00;1.90;;;14.90;79.50;;;;;;5011178;28;20295;-69
2022/05/14 04:17:19;;;;;;;2.03;1.83;;;14.80;79.90;;;;;;5011494;28;20455;-68
2022/05/14 04:19:44;;;;;;;1.93;1.80;;;14.80;79.70;;;;;;5028671;28;20456;-67
2022/05/14 04:22:10;;;;;;;2.43;1.90;;;14.80;79.90;;;;;;5012680;28;20231;-68
2022/05/14 04:24:36;;;;;;;2.40;2.20;;;14.90;80.00;;;;;;5028214;28;20568;-67
2022/05/14 04:27:02;;;;;;;2.10;2.00;;;14.90;79.90;;;;;;5027959;28;20459;-68
2022/05/14 04:29:28;;;;;;;1.60;1.50;;;14.90;79.80;;;;;;5045082;28;20639;-68
2022/05/14 04:31:55;;;;;;;2.00;1.87;;;14.90;80.60;;;;;;5011689;28;20530;-70
2022/05/14 04:34:21;;;;;;;2.23;2.03;;;14.90;79.80;;;;;;5036801;28;20220;-68
2022/05/14 04:36:47;;;;;;;2.53;1.90;;;14.80;79.80;;;;;;5028402;28;20486;-68
2022/05/14 04:39:13;;;;;;;7.60;2.87;;;14.90;79.80;;;;;;5029587;28;20450;-67
2022/05/14 04:41:39;;;;;;;3.03;2.20;;;14.90;79.70;;;;;;5011806;28;20459;-69
2022/05/14 04:44:05;;;;;;;5.93;2.50;;;14.90;79.50;;;;;;5027822;28;20721;-66
2022/05/14 04:46:35;;;;;;;3.33;2.30;;;14.80;79.60;;;;;;5028639;28;20228;-69
2022/05/14 04:49:02;;;;;;;1.90;1.80;;;14.80;80.10;;;;;;5035167;28;20442;-67
2022/05/14 04:51:28;;;;;;;2.50;1.77;;;14.80;80.20;;;;;;5027284;28;20456;-67
2022/05/14 04:53:53;;;;;;;1.87;1.47;;;14.80;80.30;;;;;;5042801;28;20459;-68
2022/05/14 04:56:19;;;;;;;3.80;2.30;;;14.80;80.60;;;;;;5030139;28;20242;-69
2022/05/14 04:58:45;;;;;;;1.57;1.47;;;14.80;80.30;;;;;;5031758;28;20255;-67
2022/05/14 05:01:11;;;;;;;3.87;1.60;;;14.80;80.50;;;;;;5015451;28;20220;-68
2022/05/14 05:03:36;;;;;;;1.47;1.37;;;14.90;80.10;;;;;;5024442;28;20278;-68
2022/05/14 05:06:02;;;;;;;2.27;2.10;;;14.90;81.10;;;;;;5027648;28;20223;-66
2022/05/14 05:08:31;;;;;;;4.30;1.90;;;14.90;80.70;;;;;;5031938;28;20220;-68
2022/05/14 05:10:58;;;;;;;2.00;1.90;;;14.90;80.70;;;;;;5032024;28;20470;-68
2022/05/14 05:13:26;;;;;;;2.60;2.23;;;14.90;80.70;;;;;;5015957;28;20959;-68
2022/05/14 05:15:52;;;;;;;2.03;1.93;;;15.00;80.90;;;;;;5032494;28;20458;-69
2022/05/14 05:18:19;;;;;;;13.33;4.57;;;15.00;81.00;;;;;;5040846;28;20455;-69
2022/05/14 05:20:48;;;;;;;10.70;2.07;;;15.00;80.70;;;;;;5052709;28;20224;-68
2022/05/14 05:23:17;;;;;;;2.37;2.17;;;15.00;81.60;;;;;;5032028;28;20963;-67
2022/05/14 05:25:43;;;;;;;2.83;2.00;;;15.10;81.30;;;;;;5026054;28;20466;-69
2022/05/14 05:28:09;;;;;;;5.10;1.97;;;15.10;81.30;;;;;;5027773;28;20501;-68
2022/05/14 05:30:35;;;;;;;3.23;1.83;;;15.10;80.80;;;;;;5025235;28;20467;-66
2022/05/14 05:33:01;;;;;;;4.67;3.50;;;15.10;81.20;;;;;;5030707;28;20720;-67
2022/05/14 05:35:27;;;;;;;2.97;1.70;;;15.10;81.30;;;;;;5031461;28;20463;-68
2022/05/14 05:37:53;;;;;;;1.70;1.60;;;15.10;81.60;;;;;;5031769;28;20477;-67
2022/05/14 05:40:19;;;;;;;8.13;2.00;;;15.20;81.80;;;;;;5033275;28;20461;-67
2022/05/14 05:42:46;;;;;;;2.80;1.77;;;15.20;82.00;;;;;;5031432;28;20452;-67
2022/05/14 05:45:14;;;;;;;2.23;2.00;;;15.30;82.30;;;;;;5019495;28;20554;-67
2022/05/14 05:47:40;;;;;;;4.50;2.20;;;15.30;82.30;;;;;;5029584;28;20521;-68
2022/05/14 05:50:07;;;;;;;4.77;1.70;;;15.40;83.30;;;;;;5028384;28;20978;-65
2022/05/14 05:52:33;;;;;;;2.03;1.83;;;15.40;83.50;;;;;;5005673;28;20244;-67
2022/05/14 05:57:44;;;;;;;3.70;1.70;;;15.50;83.60;;;;;;5029146;28;20219;-66
2022/05/14 06:00:21;;;;;;;1.70;1.60;;;15.50;83.70;;;;;;5023927;28;20959;-66
2022/05/14 06:02:47;;;;;;;3.13;1.97;;;15.60;84.10;;;;;;5021146;28;20796;-66
2022/05/14 06:05:16;;;;;;;2.60;1.50;;;15.60;84.50;;;;;;5030036;28;20455;-70
2022/05/14 06:07:42;;;;;;;3.00;2.10;;;15.70;84.50;;;;;;5001648;28;20255;-67
2022/05/14 06:10:11;;;;;;;5.50;2.00;;;15.80;84.70;;;;;;5032368;28;20478;-67
2022/05/14 06:12:38;;;;;;;2.87;1.90;;;15.80;85.60;;;;;;5032256;28;20220;-67
2022/05/14 06:15:09;;;;;;;3.07;1.60;;;15.80;85.00;;;;;;5030695;28;20449;-68
2022/05/14 06:17:35;;;;;;;2.90;1.80;;;15.90;85.90;;;;;;5029110;28;20451;-67
2022/05/14 06:20:02;;;;;;;2.77;1.70;;;15.90;85.10;;;;;;5031510;28;20458;-66
2022/05/14 06:22:28;;;;;;;3.93;1.77;;;16.00;85.70;;;;;;5032354;28;20956;-68
2022/05/14 06:24:53;;;;;;;1.63;1.53;;;16.00;86.30;;;;;;5029719;28;20526;-68
2022/05/14 06:27:20;;;;;;;1.77;1.47;;;16.10;85.70;;;;;;5028478;28;20236;-67
2022/05/14 06:29:46;;;;;;;2.50;1.90;;;16.10;86.00;;;;;;5017793;28;20220;-66
2022/05/14 06:32:11;;;;;;;3.60;2.10;;;16.20;85.50;;;;;;5032233;28;20447;-67
2022/05/14 06:34:37;;;;;;;5.30;2.10;;;16.20;85.80;;;;;;5027382;28;20533;-67
2022/05/14 06:37:03;;;;;;;2.20;1.93;;;16.20;87.20;;;;;;5031876;28;20252;-67
2022/05/14 06:39:29;;;;;;;4.23;2.00;;;16.20;87.00;;;;;;5019467;28;20231;-68
2022/05/14 06:41:59;;;;;;;1.83;1.70;;;16.30;87.40;;;;;;5026132;28;20456;-67
2022/05/14 06:44:25;;;;;;;2.50;2.30;;;16.30;86.60;;;;;;5023479;28;20232;-68
2022/05/14 06:46:50;;;;;;;2.17;1.83;;;16.40;88.00;;;;;;5011994;28;20470;-67
2022/05/14 06:49:16;;;;;;;1.80;1.70;;;16.40;87.80;;;;;;5010529;28;20232;-67
2022/05/14 06:51:42;;;;;;;2.33;1.53;;;16.50;88.40;;;;;;5028017;28;20232;-68
2022/05/14 06:54:10;;;;;;;2.27;1.80;;;16.60;87.60;;;;;;5029759;28;20630;-66
2022/05/14 06:56:40;;;;;;;5.03;2.77;;;16.60;88.70;;;;;;5024961;28;20582;-67
2022/05/14 06:59:07;;;;;;;3.17;2.20;;;16.60;88.80;;;;;;5030846;28;20451;-67
2022/05/14 07:01:35;;;;;;;3.47;2.00;;;16.60;88.30;;;;;;5027725;28;20545;-67
2022/05/14 07:06:49;;;;;;;1.87;1.77;;;16.80;88.60;;;;;;5025879;28;20477;-66
2022/05/14 07:09:24;;;;;;;2.27;2.07;;;16.80;88.60;;;;;;5029864;28;20812;-66
2022/05/14 07:11:53;;;;;;;2.90;2.30;;;16.90;89.30;;;;;;5022890;28;20236;-68
2022/05/14 07:14:19;;;;;;;4.20;3.43;;;17.10;90.10;;;;;;5029788;28;20460;-67
2022/05/14 07:16:47;;;;;;;4.73;1.83;;;17.20;90.30;;;;;;5029542;28;20447;-68
2022/05/14 07:19:13;;;;;;;5.47;1.77;;;17.40;90.30;;;;;;5028901;28;20805;-67
2022/05/14 07:21:42;;;;;;;1.70;1.60;;;17.50;90.30;;;;;;5020688;28;20991;-67
2022/05/14 07:24:12;;;;;;;3.03;2.57;;;17.60;90.40;;;;;;5030651;28;20500;-67
2022/05/14 07:26:39;;;;;;;1.90;1.80;;;17.70;90.50;;;;;;5013287;28;20464;-67
2022/05/14 07:29:07;;;;;;;2.77;2.47;;;17.80;90.50;;;;;;5022002;28;20530;-67
2022/05/14 07:31:34;;;;;;;2.90;2.00;;;17.90;90.30;;;;;;5013279;28;20462;-67
2022/05/14 07:34:00;;;;;;;3.53;2.20;;;18.00;90.50;;;;;;5028703;28;20451;-67
2022/05/14 07:36:29;;;;;;;2.13;1.80;;;18.10;90.60;;;;;;5031173;28;20533;-67
2022/05/14 07:39:00;;;;;;;3.00;1.80;;;18.20;90.70;;;;;;5027337;28;20590;-68
2022/05/14 07:41:28;;;;;;;2.20;2.00;;;18.30;90.50;;;;;;5009760;28;20545;-66
2022/05/14 07:43:57;;;;;;;2.83;1.90;;;18.40;90.70;;;;;;5010740;28;20459;-67
2022/05/14 07:46:31;;;;;;;4.23;1.90;;;18.60;90.80;;;;;;5023743;28;20835;-70
2022/05/14 07:48:58;;;;;;;3.00;2.40;;;18.70;91.10;;;;;;5025536;28;20448;-69
2022/05/14 07:51:25;;;;;;;2.30;2.10;;;18.80;91.10;;;;;;5028915;28;21040;-68
2022/05/14 07:53:52;;;;;;;2.40;1.83;;;18.80;90.70;;;;;;5008986;28;20509;-69
2022/05/14 07:56:18;;;;;;;2.60;2.10;;;18.90;90.40;;;;;;5028303;28;20817;-68
2022/05/14 07:58:44;;;;;;;2.03;1.93;;;19.00;90.60;;;;;;5027030;28;20454;-68
2022/05/14 08:01:10;;;;;;;3.03;1.80;;;19.00;90.40;;;;;;5005069;28;20865;-72
2022/05/14 08:03:37;;;;;;;2.90;2.40;;;19.10;90.70;;;;;;5027614;28;20212;-69
2022/05/14 08:06:02;;;;;;;2.90;2.30;;;19.40;90.80;;;;;;5029906;28;20462;-67
2022/05/14 08:08:28;;;;;;;5.13;2.27;;;19.50;90.30;;;;;;5025066;28;20455;-70
2022/05/14 08:10:55;;;;;;;10.20;3.27;;;19.60;90.10;;;;;;5023160;28;20221;-70
2022/05/14 08:13:23;;;;;;;2.90;2.20;;;19.70;90.30;;;;;;5025577;28;20236;-70
2022/05/14 08:15:49;;;;;;;3.27;2.00;;;19.90;90.20;;;;;;5027839;28;20451;-69
2022/05/14 08:18:16;;;;;;;2.30;1.83;;;20.00;89.90;;;;;;5027815;28;21068;-69
2022/05/14 08:20:43;;;;;;;2.70;1.50;;;20.20;89.60;;;;;;5027032;28;20983;-72
2022/05/14 08:25:57;;;;;;;3.70;2.37;;;20.20;88.70;;;;;;5028373;28;20532;-70
2022/05/14 08:28:23;;;;;;;2.37;2.00;;;20.20;88.40;;;;;;5029247;28;20451;-70
2022/05/14 08:30:49;;;;;;;2.07;1.80;;;20.30;88.40;;;;;;5028943;28;20475;-71
2022/05/14 08:33:14;;;;;;;2.10;1.80;;;20.30;87.70;;;;;;5028979;28;20693;-70
2022/05/14 08:35:41;;;;;;;2.30;1.70;;;20.40;88.10;;;;;;5028237;28;20735;-69
2022/05/14 08:38:09;;;;;;;1.93;1.83;;;20.50;87.70;;;;;;5027222;28;20282;-68
2022/05/14 08:40:46;;;;;;;2.07;1.90;;;20.60;87.80;;;;;;5017135;28;20450;-69
2022/05/14 08:43:18;;;;;;;2.63;2.20;;;20.70;86.60;;;;;;5028386;28;20461;-70
2022/05/14 08:45:44;;;;;;;6.10;2.43;;;20.80;86.60;;;;;;5017430;28;20482;-69
2022/05/14 08:48:11;;;;;;;3.43;3.13;;;20.80;86.10;;;;;;5029188;28;20454;-69
2022/05/14 08:50:38;;;;;;;2.40;2.20;;;21.00;85.80;;;;;;5028730;28;20468;-69
2022/05/14 08:53:11;;;;;;;4.33;2.50;;;21.00;85.60;;;;;;5027358;28;20220;-70
2022/05/14 08:56:00;;;;;;;5.60;2.00;;;20.90;85.40;;;;;;5028377;28;21038;-68
2022/05/14 08:58:50;;;;;;;3.20;2.10;;;21.00;85.30;;;;;;4961715;28;20535;-71
2022/05/14 09:01:24;;;;;;;3.60;1.90;;;21.10;85.40;;;;;;5025255;28;20463;-71
2022/05/14 09:03:49;;;;;;;4.87;2.00;;;21.20;85.00;;;;;;5028569;28;20451;-70
2022/05/14 09:06:15;;;;;;;2.17;1.60;;;21.30;83.90;;;;;;5025817;28;20513;-70
2022/05/14 09:08:41;;;;;;;5.10;2.10;;;21.40;84.10;;;;;;5027280;28;20227;-70
2022/05/14 09:11:17;;;;;;;2.33;2.13;;;21.50;83.70;;;;;;5029157;28;20715;-69
2022/05/14 09:13:47;;;;;;;2.67;2.00;;;21.50;83.50;;;;;;5025778;28;20326;-69
2022/05/14 09:16:33;;;;;;;4.17;1.70;;;21.50;82.30;;;;;;5021814;28;20468;-68
2022/05/14 09:19:00;;;;;;;6.50;2.00;;;21.60;82.80;;;;;;5006069;28;20477;-68
2022/05/14 09:21:26;;;;;;;2.43;2.23;;;21.70;82.10;;;;;;5024224;28;20477;-70
2022/05/14 09:23:58;;;;;;;5.57;2.03;;;21.70;81.90;;;;;;5006292;28;20209;-68
2022/05/14 09:26:29;;;;;;;2.70;1.73;;;21.80;81.30;;;;;;5024723;28;20663;-70
2022/05/14 09:29:11;;;;;;;2.20;1.90;;;21.90;81.60;;;;;;5006561;28;20884;-71
2022/05/14 09:31:37;;;;;;;1.73;1.63;;;22.00;81.30;;;;;;5014162;28;20979;-70
2022/05/14 09:34:10;;;;;;;3.43;1.80;;;22.00;81.10;;;;;;5012947;28;20517;-71
2022/05/14 09:36:37;;;;;;;1.93;1.83;;;22.10;81.10;;;;;;5018584;28;20557;-69
2022/05/14 09:39:07;;;;;;;2.30;1.83;;;22.20;81.20;;;;;;5012168;28;20463;-71
2022/05/14 09:41:49;;;;;;;7.20;1.73;;;22.40;80.30;;;;;;5025385;28;20993;-71
2022/05/14 09:44:35;;;;;;;2.30;1.57;;;22.50;80.60;;;;;;5028428;28;20488;-69
2022/05/14 09:47:05;;;;;;;2.70;1.60;;;22.60;79.10;;;;;;5026738;28;20537;-71
2022/05/14 09:49:31;;;;;;;2.90;1.87;;;22.70;79.50;;;;;;5031248;28;20843;-71
2022/05/14 09:52:24;;;;;;;3.43;1.70;;;22.80;79.40;;;;;;5022627;28;20459;-68
2022/05/14 09:54:53;;;;;;;3.77;2.00;;;22.90;79.90;;;;;;5016285;28;20448;-69
2022/05/14 09:57:55;;;;;;;3.00;1.70;;;22.90;77.70;;;;;;5018143;28;21151;-71
2022/05/14 10:00:27;;;;;;;9.40;2.50;;;22.90;78.90;;;;;;5032333;28;20461;-69
2022/05/14 10:03:36;;;;;;;2.53;2.23;;;23.10;79.20;;;;;;5030683;28;20463;-70
2022/05/14 10:06:10;;;;;;;1.93;1.83;;;23.20;78.20;;;;;;5026961;28;20547;-70
2022/05/14 10:08:59;;;;;;;1.63;1.53;;;23.20;77.60;;;;;;5034273;28;20454;-70
2022/05/14 10:11:49;;;;;;;2.13;1.93;;;23.40;78.00;;;;;;5015799;28;20466;-69
2022/05/14 10:14:24;;;;;;;2.10;1.87;;;23.30;77.70;;;;;;5031707;28;20454;-70
2022/05/14 10:17:39;;;;;;;4.40;1.70;;;23.30;78.60;;;;;;5029505;28;20464;-69
2022/05/14 10:20:29;;;;;;;1.70;1.60;;;23.60;78.40;;;;;;4934159;28;20822;-70
2022/05/14 10:26:45;;;;;;;1.70;1.60;;;24.00;78.00;;;;;;5021778;28;20478;-71
2022/05/14 10:29:30;;;;;;;3.80;1.70;;;24.10;77.30;;;;;;5023288;28;20458;-75
2022/05/14 10:32:08;;;;;;;2.13;1.80;;;23.90;76.40;;;;;;5029291;28;20450;-69
2022/05/14 10:34:36;;;;;;;1.83;1.73;;;23.90;76.80;;;;;;5027545;28;20538;-70
2022/05/14 10:37:10;;;;;;;1.93;1.83;;;24.00;77.20;;;;;;5023759;28;20478;-70
2022/05/14 10:39:50;;;;;;;2.40;1.70;;;24.10;75.60;;;;;;5023075;28;20470;-69
2022/05/14 10:42:44;;;;;;;1.60;1.50;;;24.20;76.80;;;;;;5029682;28;20462;-71
2022/05/14 10:45:24;;;;;;;2.90;1.97;;;24.50;76.10;;;;;;5021837;28;20474;-72
2022/05/14 10:48:00;;;;;;;3.47;1.90;;;24.70;76.20;;;;;;5027636;28;20470;-71
2022/05/14 10:50:29;;;;;;;2.40;1.67;;;24.80;75.90;;;;;;5027200;28;20458;-69
2022/05/14 10:52:56;;;;;;;3.40;1.67;;;24.90;75.60;;;;;;5030505;28;20459;-70
2022/05/14 10:55:43;;;;;;;2.20;1.50;;;25.00;75.30;;;;;;5029007;28;20616;-71
2022/05/14 10:58:21;;;;;;;1.57;1.47;;;25.10;74.90;;;;;;5029260;28;20455;-69
2022/05/14 11:00:49;;;;;;;2.50;1.87;;;25.20;74.70;;;;;;5024174;28;20502;-70
2022/05/14 11:03:27;;;;;;;1.80;1.40;;;25.30;74.30;;;;;;5030270;28;20473;-70
2022/05/14 11:06:02;;;;;;;2.70;1.73;;;25.30;73.30;;;;;;5030633;28;20470;-70
2022/05/14 11:08:35;;;;;;;1.67;1.57;;;25.20;73.10;;;;;;5013018;28;20478;-72
2022/05/14 11:11:03;;;;;;;3.70;1.33;;;25.20;74.00;;;;;;5029217;28;20811;-69
2022/05/14 11:13:30;;;;;;;4.80;1.73;;;25.50;72.30;;;;;;5031094;28;20455;-68
2022/05/14 11:16:10;;;;;;;1.70;1.60;;;25.70;72.10;;;;;;5029066;28;20923;-69
2022/05/14 11:18:47;;;;;;;4.20;3.80;;;25.90;72.10;;;;;;5029048;28;20513;-70
2022/05/14 11:21:14;;;;;;;3.17;1.80;;;26.10;71.20;;;;;;5030891;28;20527;-68
2022/05/14 11:24:06;;;;;;;3.13;1.63;;;26.10;71.60;;;;;;5024469;28;21017;-70
2022/05/14 11:26:43;;;;;;;2.07;1.67;;;26.30;70.50;;;;;;5025165;28;20481;-70
2022/05/14 11:29:29;;;;;;;3.90;1.70;;;26.20;70.70;;;;;;5027840;28;20835;-68
2022/05/14 11:32:09;;;;;;;2.00;1.90;;;26.10;70.50;;;;;;5021636;28;20684;-68
2022/05/14 11:34:35;;;;;;;2.53;1.60;;;25.90;70.70;;;;;;5026512;28;20469;-69
2022/05/14 11:37:04;;;;;;;3.47;1.60;;;25.90;70.50;;;;;;5026298;28;20524;-67
2022/05/14 11:39:31;;;;;;;1.77;1.60;;;25.90;70.00;;;;;;5011097;28;20538;-69
2022/05/14 11:42:28;;;;;;;1.57;1.47;;;26.00;69.90;;;;;;5026093;28;20459;-69
2022/05/14 11:45:13;;;;;;;1.83;1.73;;;26.20;67.40;;;;;;5021720;28;20551;-67
2022/05/14 11:48:00;;;;;;;2.87;1.80;;;26.20;68.80;;;;;;5022777;28;20475;-71
2022/05/14 11:51:13;;;;;;;1.93;1.80;;;26.40;67.40;;;;;;5023286;28;20478;-68
2022/05/14 11:53:43;;;;;;;3.63;1.90;;;26.60;67.70;;;;;;4959803;28;20470;-70
2022/05/14 11:56:15;;;;;;;2.10;2.00;;;26.70;67.40;;;;;;5020966;28;20491;-69
2022/05/14 11:58:51;;;;;;;2.08;1.65;;;26.90;67.10;;;;;;5026854;28;20253;-68
2022/05/14 12:01:24;;;;;;;2.07;1.83;;;27.10;66.20;;;;;;5028290;28;20329;-68
2022/05/14 12:03:52;;;;;;;1.77;1.63;;;27.20;66.60;;;;;;5029087;28;20214;-69
2022/05/14 12:06:29;;;;;;;1.85;1.70;;;27.30;66.90;;;;;;5045563;28;20231;-72
2022/05/14 12:09:04;;;;;;;1.70;1.60;;;27.20;66.90;;;;;;5011446;28;20220;-69
2022/05/14 12:11:48;;;;;;;1.80;1.70;;;27.00;65.40;;;;;;5029223;28;20215;-69
2022/05/14 12:14:26;;;;;;;3.80;1.80;;;27.10;66.30;;;;;;5005354;28;20227;-69
2022/05/14 12:16:55;;;;;;;2.40;1.87;;;27.20;66.50;;;;;;5038914;28;20961;-68
2022/05/14 12:19:29;;;;;;;4.20;1.70;;;27.20;66.60;;;;;;5010474;28;20585;-68
2022/05/14 12:22:13;;;;;;;2.00;1.90;;;27.10;63.90;;;;;;5028310;28;20680;-68
2022/05/14 12:24:40;;;;;;;2.45;1.58;;;27.00;64.30;;;;;;5020319;28;20215;-67
2022/05/14 12:27:18;;;;;;;2.83;2.00;;;27.10;64.40;;;;;;5027232;28;20265;-67
2022/05/14 12:30:03;;;;;;;1.67;1.50;;;27.00;64.60;;;;;;5031726;28;20216;-67
2022/05/14 12:35:22;;;;;;;2.83;1.60;;;27.20;64.20;;;;;;5028687;28;20462;-68
2022/05/14 12:37:54;;;;;;;4.50;3.60;;;27.50;63.40;;;;;;5010163;28;20230;-69
2022/05/14 12:40:31;;;;;;;2.60;1.80;;;27.60;63.80;;;;;;4998110;28;20250;-68
2022/05/14 12:42:58;;;;;;;2.30;1.75;;;27.70;63.90;;;;;;5022045;28;20226;-69
2022/05/14 12:45:40;;;;;;;1.65;1.50;;;27.80;63.80;;;;;;5025893;28;20220;-68
2022/05/14 12:48:08;;;;;;;3.92;2.53;;;27.80;64.10;;;;;;5027720;28;20243;-68
2022/05/14 12:50:34;;;;;;;1.88;1.77;;;28.00;62.70;;;;;;5026447;28;20212;-68
2022/05/14 12:53:06;;;;;;;1.70;1.60;;;28.10;63.00;;;;;;5028724;28;20214;-67
2022/05/14 12:55:36;;;;;;;1.98;1.80;;;28.20;63.40;;;;;;5025467;28;20669;-69
2022/05/14 12:58:03;;;;;;;1.65;1.55;;;28.20;61.60;;;;;;5025620;28;20222;-67
2022/05/14 13:00:32;;;;;;;1.70;1.60;;;28.20;61.90;;;;;;5026428;28;20208;-69
2022/05/14 13:03:11;;;;;;;3.80;2.08;;;28.10;59.80;;;;;;4990796;28;20231;-68
2022/05/14 13:05:45;;;;;;;1.80;1.58;;;27.80;60.00;;;;;;5007442;28;20212;-68
2022/05/14 13:08:21;;;;;;;1.85;1.70;;;27.60;60.70;;;;;;5024392;28;20208;-73
2022/05/14 13:10:59;;;;;;;2.08;1.85;;;27.80;62.00;;;;;;5042927;28;20263;-68
2022/05/14 13:13:37;;;;;;;1.88;1.58;;;27.90;62.30;;;;;;5010935;28;20221;-68
2022/05/14 13:16:31;;;;;;;3.70;1.80;;;28.00;61.20;;;;;;5005406;28;20220;-68
2022/05/14 13:19:18;;;;;;;3.33;1.55;;;28.10;61.20;;;;;;5010192;28;20227;-69